Acazulco, Mexico

7:28 AM CDT on May 20, 2018 (GMT -0500)
UAM LERMA | | Change Station

Elev 8445 ft 19.29 °N, 99.50 °W | Updated 2 minutes ago

Partly Cloudy
Partly Cloudy
47.8 °F
Feels Like 48 °F
N
0.0
Wind Variable Wind from North
Gusts 0.0 mph

Today
High -- | Low -- °F
--% Chance of Precip.
Yesterday
High -- | Low -- °F
Precip. -- in
Pressure 29.85 in
Visibility 10.0 miles
Clouds Few 8000 ft
Windchill 48 °F
Dew Point 46 °F
Humidity 94%
Rainfall 0.00 in
Snow Depth Not available.
7:01 AM 8:07 PM
Waxing Crescent, 32% visible
METAR MMMX 201151Z 22003KT 10SM FEW080 16/11 A3027 NOSIG RMK SLP106 52002 906 8/030 HZY CI
Pressure 29.85 in
Visibility 10.0 miles
Clouds Few 8000 ft
Windchill 48 °F
Dew Point 46 °F
Humidity 94%
Rainfall 0.00 in
Snow Depth Not available.
7:01 AM 8:07 PM
Waxing Crescent, 32% visible
METAR MMMX 201151Z 22003KT 10SM FEW080 16/11 A3027 NOSIG RMK SLP106 52002 906 8/030 HZY CI

Get Severe Weather Alerts

Thanks for signing up!

Be on the lookout for a verification email in your inbox.

You'll start receiving the daily forecast at 6 AM.

×

10-Day Weather Forecast

No radar image for this location.
×

Almanac

Astronomy

May. 20, 2018 Rise Set
Actual Time
Civil Twilight
Nautical Twilight
Astronomical Twilight
Moon
Length of Visible Light
Length of Day
Tomorrow will be .
, % of the Moon is Illuminated

Today's Extremes

Country Highs Country Lows

Community

WunderPhotos

Category 6

Welcome to Category 6. This is the collective home for Weather Underground's featured writeups by Dr. Jeff Masters (right), Bob Henson (left), Chris Burt, and other regular contributors.

Nearby

Air Quality

  Air Quality AQ Index Pollutant
Not available.

Snow Depth

Station Depth Elevation

Earthquake Activity

City Distance Mag. Time & Date
Minimum magnitude displayed is 2.5.

Coastal Water Temperatures

Place Temperature

Stations

Nearby Weather Stations

Station Location Temp. Windchill Dew Point Humidity Wind Precip. Elev Updated Type